createdAt,value
2024-02-03T00:01:33.276Z,8.70
2024-02-03T00:03:59.815Z,8.70
2024-02-03T00:06:26.485Z,8.90
2024-02-03T00:08:53.402Z,8.33
2024-02-03T00:11:19.789Z,7.53
2024-02-03T00:13:46.275Z,7.53
2024-02-03T00:16:12.844Z,8.00
2024-02-03T00:18:39.246Z,6.73
2024-02-03T00:21:05.980Z,6.57
2024-02-03T00:23:32.683Z,6.83
2024-02-03T00:25:59.109Z,6.13
2024-02-03T00:28:25.624Z,6.20
2024-02-03T00:30:52.184Z,6.60
2024-02-03T00:33:18.734Z,6.00
2024-02-03T00:35:45.329Z,6.43
2024-02-03T00:38:12.893Z,5.80
2024-02-03T00:40:39.289Z,5.37
2024-02-03T00:43:05.622Z,5.73
2024-02-03T00:45:32.219Z,5.73
2024-02-03T00:47:58.826Z,5.60
2024-02-03T00:50:25.243Z,8.00
2024-02-03T00:52:51.639Z,5.73
2024-02-03T00:55:18.039Z,6.17
2024-02-03T00:57:44.401Z,6.10
2024-02-03T01:00:11.262Z,5.70
2024-02-03T01:02:37.862Z,5.80
2024-02-03T01:05:04.334Z,6.23
2024-02-03T01:07:31.512Z,6.17
2024-02-03T01:09:57.882Z,6.53
2024-02-03T01:12:24.300Z,6.70
2024-02-03T01:14:50.623Z,5.90
2024-02-03T01:17:16.949Z,7.23
2024-02-03T01:19:43.351Z,6.50
2024-02-03T01:22:09.736Z,7.17
2024-02-03T01:24:36.093Z,6.53
2024-02-03T01:27:02.529Z,6.93
2024-02-03T01:29:29.784Z,7.47
2024-02-03T01:31:56.352Z,7.53
2024-02-03T01:34:22.830Z,8.63
2024-02-03T01:36:49.218Z,7.47
2024-02-03T01:39:15.785Z,7.27
2024-02-03T01:41:42.324Z,6.57
2024-02-03T01:44:08.731Z,7.43
2024-02-03T01:46:35.592Z,6.50
2024-02-03T01:49:02.536Z,5.73
2024-02-03T01:51:29.400Z,7.30
2024-02-03T01:53:56.747Z,6.30
2024-02-03T01:56:23.568Z,6.57
2024-02-03T01:58:49.915Z,6.90
2024-02-03T02:01:16.530Z,6.63
2024-02-03T02:03:44.449Z,6.60
2024-02-03T02:06:11.052Z,6.37
2024-02-03T02:08:38.409Z,7.43
2024-02-03T02:11:05.450Z,7.67
2024-02-03T02:13:31.893Z,6.83
2024-02-03T02:15:58.333Z,7.53
2024-02-03T02:18:25.248Z,7.20
2024-02-03T02:20:52.187Z,7.23
2024-02-03T02:23:18.505Z,7.90
2024-02-03T02:25:44.903Z,7.20
2024-02-03T02:28:11.224Z,7.43
2024-02-03T02:30:37.911Z,7.63
2024-02-03T02:33:04.437Z,8.73
2024-02-03T02:35:30.891Z,8.53
2024-02-03T02:37:57.245Z,8.70
2024-02-03T02:40:23.849Z,9.57
2024-02-03T02:42:50.340Z,8.67
2024-02-03T02:45:16.773Z,8.43
2024-02-03T02:47:43.133Z,8.77
2024-02-03T02:50:09.646Z,9.50
2024-02-03T02:52:35.997Z,9.77
2024-02-03T02:55:02.354Z,9.00
2024-02-03T02:57:28.714Z,9.87
2024-02-03T02:59:55.074Z,9.33
2024-02-03T03:02:21.428Z,9.37
2024-02-03T03:04:48.033Z,9.70
2024-02-03T03:07:16.357Z,8.53
2024-02-03T03:09:43.318Z,10.23
2024-02-03T03:12:12.854Z,9.27
2024-02-03T03:14:39.213Z,8.47
2024-02-03T03:17:05.668Z,9.73
2024-02-03T03:19:36.451Z,8.30
2024-02-03T03:22:02.869Z,9.23
2024-02-03T03:24:29.267Z,9.27
2024-02-03T03:26:55.693Z,8.00
2024-02-03T03:29:22.074Z,7.90
2024-02-03T03:31:48.546Z,7.90
2024-02-03T03:34:15.037Z,8.30
2024-02-03T03:36:41.583Z,7.97
2024-02-03T03:39:10.331Z,7.70
2024-02-03T03:41:36.854Z,7.77
2024-02-03T03:44:03.200Z,8.23
2024-02-03T03:46:29.603Z,6.80
2024-02-03T03:48:56.101Z,7.27
2024-02-03T03:51:22.604Z,7.97
2024-02-03T03:53:49.049Z,7.93
2024-02-03T03:56:15.532Z,7.50
2024-02-03T03:58:42.304Z,7.90
2024-02-03T04:01:12.293Z,7.50
2024-02-03T04:03:38.776Z,8.17
2024-02-03T04:06:05.548Z,8.67
2024-02-03T04:08:32.002Z,8.60
2024-02-03T04:10:58.335Z,9.87
2024-02-03T04:13:24.641Z,8.93
2024-02-03T04:15:51.131Z,8.67
2024-02-03T04:18:17.751Z,9.23
2024-02-03T04:20:44.137Z,9.03
2024-02-03T04:23:10.504Z,8.93
2024-02-03T04:25:36.826Z,9.43
2024-02-03T04:28:03.331Z,10.63
2024-02-03T04:30:29.830Z,10.23
2024-02-03T04:32:56.411Z,10.63
2024-02-03T04:35:23.044Z,10.40
2024-02-03T04:37:49.385Z,9.77
2024-02-03T04:40:15.881Z,10.33
2024-02-03T04:42:42.581Z,11.13
2024-02-03T04:45:09.310Z,11.27
2024-02-03T04:47:35.785Z,10.03
2024-02-03T04:50:02.768Z,10.10
2024-02-03T04:52:29.300Z,11.47
2024-02-03T04:54:55.910Z,10.63
2024-02-03T04:57:22.517Z,10.27
2024-02-03T04:59:49.023Z,11.27
2024-02-03T05:02:15.367Z,12.13
2024-02-03T05:04:41.956Z,11.57
2024-02-03T05:07:08.407Z,11.30
2024-02-03T05:09:34.938Z,11.37
2024-02-03T05:12:01.313Z,11.53
2024-02-03T05:14:27.759Z,11.93
2024-02-03T05:16:54.087Z,12.77
2024-02-03T05:19:20.616Z,12.27
2024-02-03T05:21:47.166Z,14.50
2024-02-03T05:24:13.822Z,12.67
2024-02-03T05:26:40.237Z,13.80
2024-02-03T05:29:06.688Z,13.83
2024-02-03T05:31:33.231Z,13.77
2024-02-03T05:33:59.710Z,13.70
2024-02-03T05:36:26.368Z,14.57
2024-02-03T05:38:52.816Z,15.10
2024-02-03T05:41:19.225Z,15.53
2024-02-03T05:43:45.711Z,17.90
2024-02-03T05:46:12.098Z,17.57
2024-02-03T05:48:38.638Z,17.57
2024-02-03T05:51:05.350Z,19.87
2024-02-03T05:53:36.603Z,19.27
2024-02-03T05:56:03.567Z,19.03
2024-02-03T05:58:30.537Z,21.63
2024-02-03T06:00:57.450Z,22.47
2024-02-03T06:03:27.002Z,22.60
2024-02-03T06:06:12.322Z,24.20
2024-02-03T06:08:41.705Z,27.33
2024-02-03T06:11:08.102Z,27.37
2024-02-03T06:13:34.605Z,24.93
2024-02-03T06:16:02.340Z,28.67
2024-02-03T06:18:29.049Z,24.13
2024-02-03T06:20:55.424Z,28.20
2024-02-03T06:23:21.814Z,28.83
2024-02-03T06:25:48.149Z,26.97
2024-02-03T06:28:15.324Z,31.23
2024-02-03T06:30:41.801Z,30.33
2024-02-03T06:33:08.241Z,30.23
2024-02-03T06:35:34.633Z,26.73
2024-02-03T06:38:01.098Z,25.53
2024-02-03T06:40:27.459Z,27.30
2024-02-03T06:42:54.338Z,26.43
2024-02-03T06:45:21.390Z,25.40
2024-02-03T06:47:47.872Z,26.77
2024-02-03T06:50:14.278Z,25.77
2024-02-03T06:52:40.746Z,25.87
2024-02-03T06:55:07.276Z,26.80
2024-02-03T06:57:33.647Z,22.70
2024-02-03T07:00:00.214Z,22.13
2024-02-03T07:02:26.613Z,24.03
2024-02-03T07:04:53.072Z,22.50
2024-02-03T07:07:19.609Z,20.90
2024-02-03T07:09:46.097Z,19.00
2024-02-03T07:12:12.537Z,18.00
2024-02-03T07:14:39.106Z,19.87
2024-02-03T07:17:05.700Z,17.20
2024-02-03T07:19:32.139Z,15.53
2024-02-03T07:21:58.627Z,15.60
2024-02-03T07:24:25.197Z,15.03
2024-02-03T07:26:51.645Z,15.43
2024-02-03T07:29:18.738Z,14.37
2024-02-03T07:31:45.116Z,13.40
2024-02-03T07:34:11.715Z,13.57
2024-02-03T07:36:38.242Z,14.90
2024-02-03T07:39:06.715Z,13.93
2024-02-03T07:41:33.299Z,15.20
2024-02-03T07:43:59.653Z,15.17
2024-02-03T07:46:26.020Z,15.03
2024-02-03T07:48:52.420Z,13.50
2024-02-03T07:51:18.919Z,14.70
2024-02-03T07:53:45.312Z,12.70
2024-02-03T07:56:11.855Z,14.27
2024-02-03T07:58:38.197Z,12.27
2024-02-03T08:01:04.745Z,11.67
2024-02-03T08:03:31.206Z,11.20
2024-02-03T08:05:57.626Z,11.73
2024-02-03T08:08:23.975Z,11.47
2024-02-03T08:10:51.713Z,10.93
2024-02-03T08:13:18.128Z,10.53
2024-02-03T08:15:44.556Z,9.60
2024-02-03T08:18:11.051Z,9.20
2024-02-03T08:20:37.589Z,10.03
2024-02-03T08:23:04.037Z,9.57
2024-02-03T08:25:30.567Z,9.30
2024-02-03T08:27:57.078Z,9.03
2024-02-03T08:30:23.776Z,9.90
2024-02-03T08:32:50.330Z,8.50
2024-02-03T08:35:18.753Z,9.07
2024-02-03T08:37:45.562Z,8.80
2024-02-03T08:40:14.162Z,8.27
2024-02-03T08:42:40.967Z,8.57
2024-02-03T08:45:07.688Z,8.73
2024-02-03T08:47:34.096Z,6.90
2024-02-03T08:50:00.611Z,7.43
2024-02-03T08:52:26.950Z,8.17
2024-02-03T08:54:53.354Z,7.37
2024-02-03T08:57:19.792Z,7.53
2024-02-03T08:59:46.643Z,7.20
2024-02-03T09:02:13.056Z,6.40
2024-02-03T09:04:39.437Z,6.73
2024-02-03T09:07:05.885Z,6.20
2024-02-03T09:09:32.306Z,6.80
2024-02-03T09:11:58.836Z,5.90
2024-02-03T09:14:25.166Z,6.20
2024-02-03T09:16:51.944Z,4.90
2024-02-03T09:19:18.423Z,4.87
2024-02-03T09:21:44.880Z,4.37
2024-02-03T09:24:11.347Z,4.90
2024-02-03T09:26:40.939Z,4.50
2024-02-03T09:29:08.543Z,4.33
2024-02-03T09:31:35.234Z,3.53
2024-02-03T09:34:06.234Z,3.37
2024-02-03T09:36:33.190Z,3.67
2024-02-03T09:38:59.876Z,3.43
2024-02-03T09:41:26.465Z,3.80
2024-02-03T09:43:53.273Z,3.20
2024-02-03T09:46:19.687Z,3.33
2024-02-03T09:48:46.206Z,3.10
2024-02-03T09:51:12.958Z,2.80
2024-02-03T09:53:39.465Z,3.67
2024-02-03T09:56:06.744Z,2.97
2024-02-03T09:58:33.133Z,2.93
2024-02-03T10:00:59.721Z,2.87
2024-02-03T10:03:26.188Z,2.73
2024-02-03T10:05:59.283Z,2.93
2024-02-03T10:08:25.670Z,3.27
2024-02-03T10:10:55.626Z,3.53
2024-02-03T10:13:23.403Z,3.37
2024-02-03T10:16:03.594Z,4.10
2024-02-03T10:18:33.314Z,3.83
2024-02-03T10:21:03.350Z,3.63
2024-02-03T10:23:29.965Z,3.40
2024-02-03T10:25:57.113Z,3.60
2024-02-03T10:28:23.584Z,4.00
2024-02-03T10:30:51.894Z,3.13
2024-02-03T10:33:18.307Z,4.37
2024-02-03T10:35:47.095Z,3.87
2024-02-03T10:38:14.057Z,3.43
2024-02-03T10:40:40.802Z,3.67
2024-02-03T10:43:18.792Z,4.00
2024-02-03T10:45:46.746Z,3.87
2024-02-03T10:48:18.796Z,3.87
2024-02-03T10:50:48.034Z,4.10
2024-02-03T10:53:16.518Z,3.60
2024-02-03T10:55:45.538Z,3.93
2024-02-03T10:58:13.130Z,4.00
2024-02-03T11:00:39.590Z,4.10
2024-02-03T11:03:05.972Z,4.27
2024-02-03T11:05:32.600Z,3.90
2024-02-03T11:08:11.215Z,4.07
2024-02-03T11:10:42.013Z,3.50
2024-02-03T11:13:24.192Z,3.43
2024-02-03T11:15:57.742Z,3.63
2024-02-03T11:18:25.327Z,4.00
2024-02-03T11:20:57.274Z,3.97
2024-02-03T11:23:26.272Z,3.33
2024-02-03T11:25:52.660Z,3.43
2024-02-03T11:28:19.138Z,3.60
2024-02-03T11:30:45.526Z,3.73
2024-02-03T11:33:12.484Z,3.53
2024-02-03T11:35:39.071Z,3.37
2024-02-03T11:38:06.981Z,2.90
2024-02-03T11:40:33.348Z,3.17
2024-02-03T11:42:59.702Z,3.50
2024-02-03T11:45:30.651Z,2.87
2024-02-03T11:47:57.144Z,2.63
2024-02-03T11:50:24.299Z,3.17
2024-02-03T11:52:50.749Z,3.37
2024-02-03T11:55:17.064Z,3.37
2024-02-03T11:57:43.720Z,3.03
2024-02-03T12:00:10.973Z,3.50
2024-02-03T12:02:37.434Z,2.97
2024-02-03T12:05:04.167Z,3.40
2024-02-03T12:07:30.931Z,3.53
2024-02-03T12:09:57.716Z,3.57
2024-02-03T12:12:25.331Z,3.20
2024-02-03T12:14:53.012Z,3.07
2024-02-03T12:17:20.119Z,4.03
2024-02-03T12:19:46.494Z,3.60
2024-02-03T12:22:14.362Z,3.20
2024-02-03T12:24:40.938Z,4.00
2024-02-03T12:27:07.443Z,3.40
2024-02-03T12:29:34.598Z,3.77
2024-02-03T12:32:01.089Z,3.20
2024-02-03T12:34:30.257Z,3.40
2024-02-03T12:36:57.636Z,4.07
2024-02-03T12:39:24.205Z,4.00
2024-02-03T12:41:50.632Z,3.43
2024-02-03T12:44:16.962Z,3.57
2024-02-03T12:46:43.358Z,3.77
2024-02-03T12:49:10.325Z,3.90
2024-02-03T12:51:36.816Z,3.63
2024-02-03T12:54:03.210Z,3.80
2024-02-03T12:56:29.551Z,3.63
2024-02-03T12:58:55.912Z,3.73
2024-02-03T13:01:22.391Z,3.37
2024-02-03T13:03:49.018Z,4.50
2024-02-03T13:06:16.043Z,3.03
2024-02-03T13:08:42.789Z,3.47
2024-02-03T13:11:09.297Z,11.43
2024-02-03T13:13:35.716Z,7.40
2024-02-03T13:16:02.271Z,8.53
2024-02-03T13:18:28.722Z,5.53
2024-02-03T13:20:55.168Z,4.20
2024-02-03T13:23:21.538Z,3.90
2024-02-03T13:25:48.412Z,5.37
2024-02-03T13:28:14.798Z,2.87
2024-02-03T13:30:41.145Z,4.20
2024-02-03T13:33:07.623Z,3.33
2024-02-03T13:35:34.067Z,3.60
2024-02-03T13:38:00.525Z,3.40
2024-02-03T13:40:27.079Z,2.90
2024-02-03T13:42:54.166Z,4.37
2024-02-03T13:45:20.926Z,3.40
2024-02-03T13:47:53.462Z,3.00
2024-02-03T13:50:20.141Z,2.80
2024-02-03T13:52:46.664Z,3.50
2024-02-03T13:55:13.126Z,2.60
2024-02-03T13:57:40.069Z,2.20
2024-02-03T14:00:08.016Z,2.40
2024-02-03T14:02:37.487Z,2.30
2024-02-03T14:05:05.180Z,2.60
2024-02-03T14:07:31.563Z,1.87
2024-02-03T14:09:58.017Z,2.00
2024-02-03T14:12:24.613Z,2.80
2024-02-03T14:14:51.191Z,2.73
2024-02-03T14:17:19.466Z,2.20
2024-02-03T14:19:46.642Z,1.67
2024-02-03T14:22:14.980Z,1.80
2024-02-03T14:24:41.784Z,1.80
2024-02-03T14:27:08.691Z,3.20
2024-02-03T14:29:35.288Z,2.97
2024-02-03T14:32:01.711Z,2.20
2024-02-03T14:34:28.281Z,2.00
2024-02-03T14:36:55.016Z,2.00
2024-02-03T14:39:21.573Z,2.23
2024-02-03T14:41:48.105Z,3.10
2024-02-03T14:44:15.675Z,2.57
2024-02-03T14:46:42.134Z,3.03
2024-02-03T14:49:08.727Z,3.10
2024-02-03T14:51:36.199Z,3.30
2024-02-03T14:54:02.615Z,3.50
2024-02-03T14:56:28.987Z,4.07
2024-02-03T14:58:55.354Z,4.20
2024-02-03T15:01:21.937Z,4.13
2024-02-03T15:03:48.426Z,5.60
2024-02-03T15:06:14.955Z,5.10
2024-02-03T15:08:42.740Z,4.97
2024-02-03T15:11:15.410Z,6.17
2024-02-03T15:13:41.992Z,5.37
2024-02-03T15:16:08.651Z,5.87
2024-02-03T15:18:38.813Z,6.00
2024-02-03T15:21:14.435Z,7.30
2024-02-03T15:24:05.772Z,8.20
2024-02-03T15:26:39.400Z,9.00
2024-02-03T15:29:10.351Z,7.67
2024-02-03T15:31:37.040Z,7.23
2024-02-03T15:34:04.075Z,7.70
2024-02-03T15:36:34.008Z,8.03
2024-02-03T15:39:00.568Z,8.50
2024-02-03T15:41:40.663Z,7.17
2024-02-03T15:44:11.324Z,7.03
2024-02-03T15:46:49.518Z,7.97
2024-02-03T15:49:17.786Z,8.77
2024-02-03T15:54:37.698Z,9.23
2024-02-03T15:57:04.284Z,11.13
2024-02-03T15:59:30.733Z,9.17
2024-02-03T16:01:57.218Z,12.17
2024-02-03T16:04:23.857Z,9.83
2024-02-03T16:06:50.958Z,9.87
2024-02-03T16:09:17.758Z,10.37
2024-02-03T16:11:44.348Z,12.17
2024-02-03T16:14:10.863Z,8.13
2024-02-03T16:16:37.256Z,9.13
2024-02-03T16:19:04.045Z,9.97
2024-02-03T16:21:30.814Z,9.23
2024-02-03T16:23:57.207Z,8.67
2024-02-03T16:26:24.147Z,8.60
2024-02-03T16:28:50.660Z,8.50
2024-02-03T16:31:17.158Z,7.67
2024-02-03T16:33:44.156Z,9.27
2024-02-03T16:36:10.680Z,10.10
2024-02-03T16:38:37.092Z,9.73
2024-02-03T16:41:03.568Z,10.77
2024-02-03T16:43:30.009Z,10.63
2024-02-03T16:45:56.614Z,12.80
2024-02-03T16:48:23.545Z,11.33
2024-02-03T16:50:50.162Z,12.93
2024-02-03T16:53:16.924Z,12.13
2024-02-03T16:55:43.381Z,15.27
2024-02-03T16:58:10.426Z,10.97
2024-02-03T17:00:39.222Z,12.03
2024-02-03T17:03:06.316Z,11.03
2024-02-03T17:05:33.365Z,11.20
2024-02-03T17:07:59.952Z,13.83
2024-02-03T17:10:26.380Z,12.77
2024-02-03T17:12:52.791Z,12.67
2024-02-03T17:15:19.285Z,12.63
2024-02-03T17:17:45.764Z,11.77
2024-02-03T17:20:12.729Z,13.97
2024-02-03T17:22:39.474Z,11.57
2024-02-03T17:25:06.303Z,19.83
2024-02-03T17:27:33.031Z,15.27
2024-02-03T17:29:59.557Z,16.10
2024-02-03T17:32:26.408Z,19.73
2024-02-03T17:34:53.239Z,18.03
2024-02-03T17:37:19.730Z,12.80
2024-02-03T17:39:46.092Z,12.70
2024-02-03T17:42:12.467Z,13.60
2024-02-03T17:44:38.819Z,13.70
2024-02-03T17:47:05.185Z,17.63
2024-02-03T17:49:31.561Z,15.40
2024-02-03T17:51:58.048Z,15.77
2024-02-03T17:54:24.456Z,13.23
2024-02-03T17:56:50.843Z,13.03
2024-02-03T17:59:20.316Z,11.93
2024-02-03T18:01:48.620Z,13.87
2024-02-03T18:04:15.331Z,13.40
2024-02-03T18:06:42.083Z,13.13
2024-02-03T18:09:09.865Z,13.43
2024-02-03T18:11:41.415Z,15.40
2024-02-03T18:14:08.183Z,12.67
2024-02-03T18:16:35.033Z,14.43
2024-02-03T18:19:04.681Z,17.77
2024-02-03T18:21:31.710Z,18.27
2024-02-03T18:23:58.539Z,35.40
2024-02-03T18:26:24.912Z,25.13
2024-02-03T18:28:54.230Z,35.33
2024-02-03T18:31:21.316Z,15.27
2024-02-03T18:33:47.809Z,4.33
2024-02-03T18:36:14.296Z,3.97
2024-02-03T18:38:40.656Z,4.10
2024-02-03T18:41:07.005Z,4.27
2024-02-03T18:43:33.817Z,5.37
2024-02-03T18:46:00.642Z,7.20
2024-02-03T18:48:29.147Z,7.83
2024-02-03T18:50:56.013Z,7.43
2024-02-03T18:53:22.439Z,8.27
2024-02-03T18:55:49.020Z,15.67
2024-02-03T18:58:15.478Z,8.57
2024-02-03T19:00:42.043Z,12.60
2024-02-03T19:03:08.425Z,10.33
2024-02-03T19:05:34.772Z,11.80
2024-02-03T19:08:01.416Z,9.13
2024-02-03T19:10:27.736Z,14.87
2024-02-03T19:12:54.199Z,13.40
2024-02-03T19:15:20.648Z,16.80
2024-02-03T19:17:47.134Z,17.17
2024-02-03T19:20:13.680Z,19.97
2024-02-03T19:22:40.112Z,17.90
2024-02-03T19:25:07.369Z,16.00
2024-02-03T19:27:34.058Z,24.73
2024-02-03T19:30:00.603Z,15.30
2024-02-03T19:32:27.446Z,17.83
2024-02-03T19:34:54.113Z,23.73
2024-02-03T19:37:20.496Z,15.93
2024-02-03T19:39:47.025Z,18.50
2024-02-03T19:42:13.527Z,15.93
2024-02-03T19:44:40.241Z,14.60
2024-02-03T19:47:06.777Z,17.07
2024-02-03T19:49:33.367Z,14.07
2024-02-03T19:51:59.885Z,14.77
2024-02-03T19:54:26.393Z,12.27
2024-02-03T19:56:52.784Z,12.77
2024-02-03T19:59:19.314Z,11.20
2024-02-03T20:01:45.890Z,11.77
2024-02-03T20:04:12.358Z,9.57
2024-02-03T20:06:38.948Z,11.80
2024-02-03T20:09:06.951Z,10.47
2024-02-03T20:11:33.550Z,11.03
2024-02-03T20:14:00.002Z,11.53
2024-02-03T20:16:26.494Z,7.70
2024-02-03T20:18:53.362Z,9.63
2024-02-03T20:21:19.947Z,9.60
2024-02-03T20:23:46.569Z,10.60
2024-02-03T20:26:13.800Z,13.57
2024-02-03T20:28:41.763Z,6.80
2024-02-03T20:31:09.747Z,6.23
2024-02-03T20:33:36.491Z,6.03
2024-02-03T20:36:03.346Z,10.33
2024-02-03T20:38:29.749Z,7.03
2024-02-03T20:40:56.219Z,6.00
2024-02-03T20:43:24.430Z,6.83
2024-02-03T20:45:51.519Z,9.43
2024-02-03T20:48:18.712Z,5.47
2024-02-03T20:50:46.179Z,6.83
2024-02-03T20:53:13.282Z,7.43
2024-02-03T20:55:40.062Z,9.97
2024-02-03T20:58:06.768Z,6.97
2024-02-03T21:00:33.525Z,9.83
2024-02-03T21:03:00.039Z,7.30
2024-02-03T21:05:26.650Z,8.33
2024-02-03T21:07:53.947Z,7.37
2024-02-03T21:10:20.560Z,6.70
2024-02-03T21:12:47.024Z,8.87
2024-02-03T21:15:13.423Z,7.43
2024-02-03T21:17:39.906Z,7.73
2024-02-03T21:20:06.949Z,11.73
2024-02-03T21:22:34.121Z,6.50
2024-02-03T21:25:00.651Z,6.07
2024-02-03T21:27:27.210Z,9.10
2024-02-03T21:29:53.537Z,7.70
2024-02-03T21:32:19.900Z,5.83
2024-02-03T21:34:47.882Z,7.90
2024-02-03T21:37:14.649Z,9.87
2024-02-03T21:39:41.151Z,7.20
2024-02-03T21:42:07.732Z,9.23
2024-02-03T21:44:34.122Z,9.43
2024-02-03T21:47:00.460Z,8.63
2024-02-03T21:49:26.989Z,8.90
2024-02-03T21:51:53.535Z,6.33
2024-02-03T21:54:20.202Z,5.80
2024-02-03T21:56:46.569Z,6.43
2024-02-03T21:59:12.960Z,9.37
2024-02-03T22:01:39.538Z,6.83
2024-02-03T22:04:06.150Z,7.43
2024-02-03T22:06:32.792Z,13.27
2024-02-03T22:08:59.584Z,9.43
2024-02-03T22:11:25.984Z,11.60
2024-02-03T22:13:52.646Z,11.97
2024-02-03T22:16:19.061Z,9.70
2024-02-03T22:18:45.580Z,9.47
2024-02-03T22:21:12.021Z,13.67
2024-02-03T22:23:39.278Z,10.27
2024-02-03T22:26:05.668Z,12.17
2024-02-03T22:28:32.185Z,13.17
2024-02-03T22:30:58.613Z,11.47
2024-02-03T22:33:25.185Z,9.23
2024-02-03T22:35:52.026Z,10.20
2024-02-03T22:38:18.372Z,10.80
2024-02-03T22:40:44.915Z,7.37
2024-02-03T22:43:11.817Z,7.60
2024-02-03T22:45:38.420Z,9.43
2024-02-03T22:48:05.096Z,8.70
2024-02-03T22:50:31.522Z,11.43
2024-02-03T22:52:58.246Z,12.03
2024-02-03T22:55:24.590Z,9.17
2024-02-03T22:57:50.994Z,7.60
2024-02-03T23:00:29.694Z,9.07
2024-02-03T23:02:56.829Z,11.20
2024-02-03T23:05:23.322Z,12.40
2024-02-03T23:07:49.773Z,11.57
2024-02-03T23:10:16.521Z,8.07
2024-02-03T23:12:43.734Z,8.73
2024-02-03T23:15:13.514Z,8.40
2024-02-03T23:17:44.696Z,5.13
2024-02-03T23:20:11.805Z,8.87
2024-02-03T23:22:38.793Z,14.77
2024-02-03T23:25:07.415Z,9.13
2024-02-03T23:27:37.053Z,6.50
2024-02-03T23:30:05.226Z,9.80
2024-02-03T23:32:33.199Z,8.57
2024-02-03T23:35:00.083Z,6.77
2024-02-03T23:37:26.536Z,6.47
2024-02-03T23:39:53.254Z,7.10
2024-02-03T23:42:19.892Z,7.37
2024-02-03T23:44:46.242Z,7.97
2024-02-03T23:47:14.786Z,14.73
2024-02-03T23:49:41.555Z,8.03
2024-02-03T23:52:08.404Z,8.33
2024-02-03T23:54:35.695Z,7.07
2024-02-03T23:57:02.354Z,8.37
2024-02-03T23:59:28.810Z,8.50
